Latest Weather Observations for Wattamolla

IDN60801

Issued at 9:03 am EST Wednesday 18 September 2019 (issued every 10 minutes, with the page automatically refreshed every 10 minutes)

About weather observations | Map of weather stations | Latest weather observations for NSW | Other Formats
Station Details ID: 066208 Name: WATTAMOLLA AWS Lat: -34.14 Lon: 151.12 Height: 44.0 m
Data from the previous 72 hours. | See also: Recent months at Wattamolla
Date/Time
EST
Temp
°C
App
Temp
°C
Dew
Point
°C
Rel
Hum
%
Delta-T
°C
Wind Press
QNH
hPa
Press
MSL
hPa
Rain since
9am
mm
Dir  Spd
km/h
Gust
km/h
Spd
kts
Gust
kts
18/09:00am - - - - - SSE 61 78 33 42 - - -
18/08:33am - - - - - SSE 59 78 32 42 - - -
18/08:30am - - - - - SSE 63 78 34 42 - - -
18/08:09am - - - - - SSE 57 76 31 41 - - -
18/08:00am - - - - - SSE 59 72 32 39 - - -
18/07:50am - - - - - SSE 56 74 30 40 - - -
18/07:30am - - - - - SSE 57 72 31 39 - - -
18/07:00am - - - - - SSE 57 76 31 41 - - -
18/06:30am - - - - - SSE 56 74 30 40 - - -
18/06:00am - - - - - SSE 57 76 31 41 - - -
18/05:30am - - - - - SSE 59 80 32 43 - - -
18/05:00am - - - - - SSE 59 82 32 44 - - -
18/04:40am - - - - - SSE 56 74 30 40 - - -
18/04:30am - - - - - SSE 57 70 31 38 - - -
18/04:07am - - - - - SSE 61 80 33 43 - - -
18/04:00am - - - - - SSE 61 76 33 41 - - -
18/03:30am - - - - - SSE 65 78 35 42 - - -
18/03:13am - - - - - SSE 59 76 32 41 - - -
18/03:00am - - - - - SSE 61 76 33 41 - - -
18/02:45am - - - - - SSE 57 80 31 43 - - -
18/02:30am - - - - - SSE 61 78 33 42 - - -
18/02:00am - - - - - SSE 61 85 33 46 - - -
18/01:30am - - - - - SSE 57 76 31 41 - - -
18/01:04am - - - - - SSE 59 78 32 42 - - -
18/01:00am - - - - - SSE 57 74 31 40 - - -
18/12:30am - - - - - SSE 59 82 32 44 - - -
18/12:03am - - - - - SSE 59 78 32 42 - - -
18/12:00am - - - - - SSE 61 78 33 42 - - -
 
Date/Time
EST
Temp
°C
App
Temp
°C
Dew
Point
°C
Rel
Hum
%
Delta-T
°C
Wind Press
QNH
hPa
Press
MSL
hPa
Rain since
9am
mm
Dir  Spd
km/h
Gust
km/h
Spd
kts
Gust
kts
17/11:35pm - - - - - SSE 61 80 33 43 - - -
17/11:30pm - - - - - SSE 65 82 35 44 - - -
17/11:00pm - - - - - SSE 59 78 32 42 - - -
17/10:30pm - - - - - SSE 61 80 33 43 - - -
17/10:00pm - - - - - SSE 59 80 32 43 - - -
17/09:33pm - - - - - SSE 59 78 32 42 - - -
17/09:30pm - - - - - SSE 61 78 33 42 - - -
17/09:01pm - - - - - SSE 61 80 33 43 - - -
17/09:00pm - - - - - SSE 61 76 33 41 - - -
17/08:30pm - - - - - SSE 61 82 33 44 - - -
17/08:00pm - - - - - SSE 65 83 35 45 - - -
17/07:30pm - - - - - SSE 65 85 35 46 - - -
17/07:00pm - - - - - SSE 65 83 35 45 - - -
17/06:30pm - - - - - SSE 72 93 39 50 - - -
17/06:00pm - - - - - SSE 72 93 39 50 - - -
17/05:30pm - - - - - SSE 70 95 38 51 - - -
17/05:00pm - - - - - SSE 74 95 40 51 - - -
17/04:53pm - - - - - SSE 70 91 38 49 - - -
17/04:48pm - - - - - SSE 65 85 35 46 - - -
17/04:38pm - - - - - SSE 54 72 29 39 - - -
17/04:30pm - - - - - SSE 57 72 31 39 - - -
17/04:00pm - - - - - SSE 63 78 34 42 - - -
17/03:30pm - - - - - SSE 54 74 29 40 - - -
17/03:08pm - - - - - SSE 57 76 31 41 - - -
17/03:00pm - - - - - SSE 57 72 31 39 - - -
17/02:48pm - - - - - SSE 54 72 29 39 - - -
17/02:30pm - - - - - SSE 56 67 30 36 - - -
17/02:00pm - - - - - SSE 50 69 27 37 - - -
17/01:34pm - - - - - SSE 54 72 29 39 - - -
17/01:30pm - - - - - SSE 50 65 27 35 - - -
17/01:00pm - - - - - SSE 50 65 27 35 - - -
17/12:58pm - - - - - SSE 44 63 24 34 - - -
17/12:30pm - - - - - SSE 46 59 25 32 - - -
17/12:14pm - - - - - SSE 43 61 23 33 - - -
17/12:00pm - - - - - SSE 44 59 24 32 - - -
17/11:30am - - - - - SSE 43 52 23 28 - - -
17/11:00am - - - - - S 46 56 25 30 - - -
17/10:30am - - - - - S 44 57 24 31 - - -
17/10:00am - - - - - SSE 39 57 21 31 - - -
17/09:55am - - - - - SSE 41 59 22 32 - - -
17/09:30am - - - - - S 46 61 25 33 - - -
17/09:00am - - - - - S 46 67 25 36 - - -
17/08:36am - - - - - S 43 63 23 34 - - -
17/08:30am - - - - - S 44 59 24 32 - - -
17/08:00am - - - - - S 44 65 24 35 - - -
17/07:30am - - - - - S 35 54 19 29 - - -
17/07:08am - - - - - SSE 41 59 22 32 - - -
17/07:00am - - - - - S 50 63 27 34 - - -
17/06:44am - - - - - S 46 67 25 36 - - -
17/06:30am - - - - - S 50 59 27 32 - - -
17/06:00am - - - - - S 54 61 29 33 - - -
17/05:30am - - - - - S 56 65 30 35 - - -
17/05:00am - - - - - S 57 69 31 37 - - -
17/04:30am - - - - - S 57 69 31 37 - - -
17/04:00am - - - - - S 57 65 31 35 - - -
17/03:30am - - - - - S 61 74 33 40 - - -
17/03:00am - - - - - S 61 72 33 39 - - -
17/02:30am - - - - - S 63 78 34 42 - - -
17/02:00am - - - - - S 59 74 32 40 - - -
17/01:30am - - - - - S 61 70 33 38 - - -
17/01:00am - - - - - S 59 70 32 38 - - -
17/12:30am - - - - - SSE 57 72 31 39 - - -
17/12:28am - - - - - SSE 59 78 32 42 - - -
17/12:00am - - - - - SSE 59 72 32 39 - - -
 
Date/Time
EST
Temp
°C
App
Temp
°C
Dew
Point
°C
Rel
Hum
%
Delta-T
°C
Wind Press
QNH
hPa
Press
MSL
hPa
Rain since
9am
mm
Dir  Spd
km/h
Gust
km/h
Spd
kts
Gust
kts
16/11:50pm - - - - - SSE 56 74 30 40 - - -
16/11:30pm - - - - - SSE 59 76 32 41 - - -
16/11:10pm - - - - - SSE 59 78 32 42 - - -
16/11:00pm - - - - - SSE 57 70 31 38 - - -
16/10:30pm - - - - - SSE 52 67 28 36 - - -
16/10:00pm - - - - - SSE 57 72 31 39 - - -
16/09:30pm - - - - - SSE 57 76 31 41 - - -
16/09:17pm - - - - - SSE 52 78 28 42 - - -
16/09:13pm - - - - - SSE 43 69 23 37 - - -
16/09:00pm - - - - - SSE 43 59 23 32 - - -
16/08:30pm - - - - - SSE 48 61 26 33 - - -
16/08:00pm - - - - - SSE 50 63 27 34 - - -
16/07:30pm - - - - - SSE 56 67 30 36 - - -
16/07:00pm - - - - - SSE 54 65 29 35 - - -
16/06:55pm - - - - - SSE 54 72 29 39 - - -
16/06:30pm - - - - - SSE 54 67 29 36 - - -
16/06:00pm - - - - - SSE 57 69 31 37 - - -
16/05:30pm - - - - - SSE 63 76 34 41 - - -
16/05:00pm - - - - - SSE 59 70 32 38 - - -
16/04:30pm - - - - - SSE 61 78 33 42 - - -
16/04:00pm - - - - - SSE 63 76 34 41 - - -
16/03:30pm - - - - - SSE 61 74 33 40 - - -
16/03:00pm - - - - - SSE 63 74 34 40 - - -
16/02:30pm - - - - - S 67 83 36 45 - - -
16/02:00pm - - - - - S 61 76 33 41 - - -
16/01:52pm - - - - - SSE 54 76 29 41 - - -
16/01:30pm - - - - - SSE 22 56 12 30 - - -
16/01:28pm - - - - - SSE 17 56 9 30 - - -
16/01:27pm - - - - - SSE 13 56 7 30 - - -
16/01:00pm - - - - - N 11 15 6 8 - - -
16/12:30pm - - - - - ENE 9 11 5 6 - - -
16/12:00pm - - - - - ENE 13 15 7 8 - - -
16/11:30am - - - - - ENE 7 9 4 5 - - -
16/11:00am - - - - - NNE 9 11 5 6 - - -
16/10:30am - - - - - NNW 11 15 6 8 - - -
16/10:00am - - - - - NNW 15 24 8 13 - - -
16/09:30am - - - - - NNW 13 24 7 13 - - -
16/09:00am - - - - - NNW 15 24 8 13 - - -
16/08:30am - - - - - NW 9 15 5 8 - - -
16/08:00am - - - - - NNW 15 24 8 13 - - -
16/07:30am - - - - - NNW 15 22 8 12 - - -
16/07:00am - - - - - NW 17 32 9 17 - - -
16/06:30am - - - - - NW 19 28 10 15 - - -
16/06:00am - - - - - NW 15 22 8 12 - - -
16/05:30am - - - - - NW 17 28 9 15 - - -
16/05:00am - - - - - NW 19 28 10 15 - - -
16/04:30am - - - - - NW 11 15 6 8 - - -
16/04:00am - - - - - NW 11 15 6 8 - - -
16/03:30am - - - - - NNE 4 13 2 7 - - -
16/03:00am - - - - - NW 9 13 5 7 - - -
16/02:30am - - - - - NNW 15 19 8 10 - - -
16/02:00am - - - - - NW 17 19 9 10 - - -
16/01:30am - - - - - NW 17 20 9 11 - - -
16/01:00am - - - - - NW 19 22 10 12 - - -
16/12:30am - - - - - NNW 15 17 8 9 - - -
16/12:00am - - - - - NNW 6 7 3 4 - - -
 
Date/Time
EST
Temp
°C
App
Temp
°C
Dew
Point
°C
Rel
Hum
%
Delta-T
°C
Wind Press
QNH
hPa
Press
MSL
hPa
Rain since
9am
mm
Dir  Spd
km/h
Gust
km/h
Spd
kts
Gust
kts
15/11:30pm - - - - - NW 13 17 7 9 - - -
15/11:00pm - - - - - NNW 13 17 7 9 - - -
15/10:30pm - - - - - NW 17 20 9 11 - - -
15/10:00pm - - - - - NW 13 19 7 10 - - -
15/09:30pm - - - - - NNW 13 17 7 9 - - -
15/09:00pm - - - - - NNW 13 17 7 9 - - -
15/08:30pm - - - - - NNW 13 19 7 10 - - -
15/08:00pm - - - - - NNW 17 19 9 10 - - -
15/07:30pm - - - - - NNW 19 22 10 12 - - -
15/07:00pm - - - - - NNW 15 17 8 9 - - -
15/06:30pm - - - - - NNW 13 15 7 8 - - -
15/06:00pm - - - - - N 9 13 5 7 - - -
15/05:30pm - - - - - N 17 19 9 10 - - -
15/05:00pm - - - - - N 15 20 8 11 - - -
15/04:30pm - - - - - N 17 30 9 16 - - -
15/04:00pm - - - - - N 19 30 10 16 - - -
15/03:30pm - - - - - NE 17 22 9 12 - - -
15/03:00pm - - - - - NE 22 33 12 18 - - -
15/02:30pm - - - - - NE 20 33 11 18 - - -
15/02:00pm - - - - - NE 22 32 12 17 - - -
15/01:30pm - - - - - NE 19 26 10 14 - - -
15/01:00pm - - - - - NE 19 26 10 14 - - -
15/12:30pm - - - - - E 13 15 7 8 - - -
15/12:00pm - - - - - ESE 13 15 7 8 - - -
15/11:30am - - - - - SSE 7 11 4 6 - - -
15/11:00am - - - - - NW 13 20 7 11 - - -
15/10:30am - - - - - NW 17 22 9 12 - - -
15/10:00am - - - - - NW 13 17 7 9 - - -
15/09:30am - - - - - NW 13 22 7 12 - - -

Other formats

Comma delimited format used in spreadsheet applications
http://www.bom.gov.au/fwo/IDN60801/IDN60801.95752.axf

JavaScript Object Notation format (JSON) in row-major order
http://www.bom.gov.au/fwo/IDN60801/IDN60801.95752.json

Data quality

Most of these data are generated automatically and are frequently updated. Quality checks on data are not normally performed. It is possible for incorrect values to appear. Refer to information at About Latest Weather Observations and please check the disclaimer before using these data.